Time;durP1;ratioP1;P1;durP2;ratioP2;P2;SDS_P1;SDS_P2;PMS_P1;PMS_P2;Temp;Humidity;BMP_temperature;BMP_pressure;BME280_temperature;BME280_humidity;BME280_pressure;Samples;Min_cycle;Max_cycle;Signal;HPM_P1;HPM_P2
2023/06/26 00:02:11;;;;;;;;;;;;;;;24.26;67.22;100450.63;7396409;19;1396;-55
2023/06/26 00:04:39;;;;;;;;;;;;;;;24.31;67.27;100452.81;7398659;19;1386;-55
2023/06/26 00:07:08;;;;;;;;;;;;;;;24.25;67.19;100448.94;7398493;19;1498;-54
2023/06/26 00:09:36;;;;;;;;;;;;;;;24.31;67.22;100452.81;7397281;19;1880;-55
2023/06/26 00:12:07;;;;;;;;;;;;;;;24.26;67.29;100445.25;7398516;19;1542;-54
2023/06/26 00:14:36;;;;;;;;;;;;;;;24.27;67.08;100457.72;7397524;19;1414;-55
2023/06/26 00:17:04;;;;;;;;;;;;;;;24.35;67.28;100454.13;7399379;19;1107;-55
2023/06/26 00:19:33;;;;;;;;;;;;;;;24.29;66.89;100452.13;7396639;19;1779;-55
2023/06/26 00:22:01;;;;;;;;;;;;;;;24.30;66.99;100449.25;7397483;19;1781;-54
2023/06/26 00:24:29;;;;;;;;;;;;;;;24.33;66.91;100440.81;7396939;19;1837;-55
2023/06/26 00:26:58;;;;;;;;;;;;;;;24.30;67.04;100437.63;7397278;19;1021;-54
2023/06/26 00:29:29;;;;;;;;;;;;;;;24.32;67.13;100444.53;7396926;19;1973;-55
2023/06/26 00:31:57;;;;;;;;;;;;;;;24.32;66.98;100432.88;7395505;19;1859;-54
2023/06/26 00:34:26;;;;;;;;;;;;;;;24.31;67.20;100439.28;7395248;19;1763;-55
2023/06/26 00:36:54;;;;;;;;;;;;;;;24.25;67.19;100426.50;7396636;19;1752;-55
2023/06/26 00:39:25;;;;;;;;;;;;;;;24.25;67.24;100426.50;7396688;19;1751;-55
2023/06/26 00:41:54;;;;;;;;;;;;;;;24.27;67.14;100419.06;7396099;19;1459;-56
2023/06/26 00:44:22;;;;;;;;;;;;;;;24.27;67.17;100421.75;7398271;19;1834;-54
2023/06/26 00:46:53;;;;;;;;;;;;;;;24.21;67.24;100426.88;7398103;19;1114;-55
2023/06/26 00:49:22;;;;;;;;;;;;;;;24.20;67.57;100427.88;7394438;19;1808;-55
2023/06/26 00:51:50;;;;;;;;;;;;;;;24.26;67.15;100422.78;7394728;19;1845;-55
2023/06/26 00:54:20;;;;;;;;;;;;;;;24.27;67.35;100421.75;7395268;19;1743;-54
2023/06/26 00:56:48;;;;;;;;;;;;;;;24.21;67.15;100417.91;7395100;19;1404;-54
2023/06/26 00:59:17;;;;;;;;;;;;;;;24.25;67.23;100421.94;7396571;19;1414;-54
2023/06/26 01:01:45;;;;;;;;;;;;;;;24.24;67.22;100420.25;7397723;19;1025;-54
2023/06/26 01:04:19;;;;;;;;;;;;;;;24.24;67.11;100420.25;7396610;19;1917;-55
2023/06/26 01:06:51;;;;;;;;;;;;;;;24.25;67.34;100408.41;7396618;19;1938;-55
2023/06/26 01:09:21;;;;;;;;;;;;;;;24.27;67.07;100429.84;7396148;19;1624;-55
2023/06/26 01:11:49;;;;;;;;;;;;;;;24.32;67.01;100419.38;7394390;19;1867;-55
2023/06/26 01:14:17;;;;;;;;;;;;;;;24.30;66.85;100424.94;7397356;19;1067;-55
2023/06/26 01:16:47;;;;;;;;;;;;;;;24.27;67.17;100435.25;7396136;19;1883;-54
2023/06/26 01:19:25;;;;;;;;;;;;;;;24.28;67.15;100448.59;7396028;19;1958;-55
2023/06/26 01:21:57;;;;;;;;;;;;;;;24.26;67.14;100434.44;7395733;19;1423;-55
2023/06/26 01:24:27;;;;;;;;;;;;;;;24.31;67.13;100433.88;7396410;19;1702;-54
2023/06/26 01:26:58;;;;;;;;;;;;;;;24.32;66.96;100441.81;7395520;19;1477;-54
2023/06/26 01:29:27;;;;;;;;;;;;;;;24.28;67.07;100426.16;7395471;19;1791;-55
2023/06/26 01:31:56;;;;;;;;;;;;;;;24.30;67.02;100429.50;7393395;19;1849;-55
2023/06/26 01:34:24;;;;;;;;;;;;;;;24.25;67.10;100438.13;7395725;19;968;-55
2023/06/26 01:36:52;;;;;;;;;;;;;;;24.27;67.04;100438.78;7396324;19;1874;-55
2023/06/26 01:39:21;;;;;;;;;;;;;;;24.22;66.95;100430.41;7401797;19;1903;-61
2023/06/26 01:41:49;;;;;;;;;;;;;;;24.27;67.16;100432.56;7402674;19;1490;-54
2023/06/26 01:44:25;;;;;;;;;;;;;;;24.25;67.11;100435.44;7402805;19;1757;-54
2023/06/26 01:47:00;;;;;;;;;;;;;;;24.22;67.12;100439.34;7404461;19;1037;-54
2023/06/26 01:49:35;;;;;;;;;;;;;;;24.29;66.88;100433.22;7398581;19;1420;-54
2023/06/26 01:52:08;;;;;;;;;;;;;;;24.28;67.12;100440.50;7399690;19;1846;-55
2023/06/26 01:54:40;;;;;;;;;;;;;;;24.27;67.13;100441.50;7401896;19;1404;-55
2023/06/26 01:57:10;;;;;;;;;;;;;;;24.22;67.15;100433.94;7401828;19;1383;-55
2023/06/26 01:59:41;;;;;;;;;;;;;;;24.19;67.52;100437.00;7401500;19;1368;-54
2023/06/26 02:02:10;;;;;;;;;;;;;;;24.19;67.48;100441.56;7400755;19;1755;-54
2023/06/26 02:04:38;;;;;;;;;;;;;;;24.21;67.45;100436.81;7402349;19;1462;-55
2023/06/26 02:07:09;;;;;;;;;;;;;;;24.18;67.26;100429.91;7401396;19;1810;-55
2023/06/26 02:09:37;;;;;;;;;;;;;;;24.24;67.16;100430.22;7401929;19;1720;-54
2023/06/26 02:12:06;;;;;;;;;;;;;;;24.25;67.23;100437.31;7400255;19;1877;-54
2023/06/26 02:14:34;;;;;;;;;;;;;;;24.22;67.36;100422.31;7399582;19;1541;-54
2023/06/26 02:17:05;;;;;;;;;;;;;;;24.26;67.41;100430.91;7402788;19;1037;-55
2023/06/26 02:19:33;;;;;;;;;;;;;;;24.30;67.21;100430.34;7401355;19;1974;-54
2023/06/26 02:22:02;;;;;;;;;;;;;;;24.22;67.07;100422.31;7400743;19;1387;-55
2023/06/26 02:24:30;;;;;;;;;;;;;;;24.21;67.12;100431.41;7401074;19;1372;-55
2023/06/26 02:26:59;;;;;;;;;;;;;;;24.21;67.26;100426.88;7401596;19;962;-55
2023/06/26 02:29:28;;;;;;;;;;;;;;;24.23;67.19;100432.06;7401237;19;1542;-55
2023/06/26 02:31:56;;;;;;;;;;;;;;;24.22;67.22;100419.59;7399669;19;1860;-54
2023/06/26 02:34:27;;;;;;;;;;;;;;;24.24;67.34;100430.22;7400901;19;1824;-55
2023/06/26 02:36:56;;;;;;;;;;;;;;;24.24;67.34;100422.13;7400817;19;1324;-55
2023/06/26 02:39:24;;;;;;;;;;;;;;;24.29;67.27;100425.13;7400082;19;1387;-55
2023/06/26 02:41:53;;;;;;;;;;;;;;;24.22;67.38;100433.94;7400095;19;1661;-55
2023/06/26 02:44:21;;;;;;;;;;;;;;;24.30;66.93;100430.34;7400786;19;1440;-54
2023/06/26 02:46:50;;;;;;;;;;;;;;;24.28;67.22;100450.47;7400273;19;1392;-55
2023/06/26 02:49:18;;;;;;;;;;;;;;;24.22;67.18;100428.53;7396019;19;1039;-55
2023/06/26 02:51:49;;;;;;;;;;;;;;;24.22;67.21;100439.34;7398398;19;1864;-54
2023/06/26 02:54:17;;;;;;;;;;;;;;;24.29;67.14;100439.50;7400673;19;1451;-54
2023/06/26 02:56:46;;;;;;;;;;;;;;;24.24;67.19;100438.34;7399712;19;1791;-55
2023/06/26 02:59:14;;;;;;;;;;;;;;;24.22;67.09;100423.13;7400057;19;1678;-54
2023/06/26 03:01:42;;;;;;;;;;;;;;;24.21;67.52;100442.22;7399735;19;1731;-55
2023/06/26 03:04:10;;;;;;;;;;;;;;;24.19;67.36;100438.84;7398503;19;1768;-55
2023/06/26 03:06:39;;;;;;;;;;;;;;;24.24;67.22;100431.06;7400185;19;1810;-54
2023/06/26 03:09:10;;;;;;;;;;;;;;;24.19;67.35;100420.81;7399526;19;1387;-54
2023/06/26 03:11:38;;;;;;;;;;;;;;;24.19;67.22;100434.31;7398055;19;1864;-55
2023/06/26 03:14:06;;;;;;;;;;;;;;;24.17;67.44;100444.47;7400492;19;1110;-55
2023/06/26 03:16:35;;;;;;;;;;;;;;;24.16;67.16;100423.84;7399691;19;1858;-55
2023/06/26 03:19:04;;;;;;;;;;;;;;;24.19;67.22;100439.72;7398125;19;1508;-55
2023/06/26 03:21:32;;;;;;;;;;;;;;;24.19;67.44;100437.00;7398602;19;1481;-54
2023/06/26 03:24:00;;;;;;;;;;;;;;;24.20;67.30;100435.97;7398126;19;1730;-55
2023/06/26 03:26:32;;;;;;;;;;;;;;;24.18;67.09;100434.47;7399767;19;1791;-55
2023/06/26 03:29:00;;;;;;;;;;;;;;;24.18;67.28;100431.78;7399648;19;1768;-55
2023/06/26 03:31:29;;;;;;;;;;;;;;;24.19;67.22;100428.03;7397942;19;1842;-55
2023/06/26 03:33:57;;;;;;;;;;;;;;;24.19;67.40;100433.44;7400953;19;935;-55
2023/06/26 03:36:25;;;;;;;;;;;;;;;24.18;67.39;100426.38;7396857;19;1878;-55
2023/06/26 03:38:56;;;;;;;;;;;;;;;24.15;67.25;100427.59;7399031;19;1364;-55
2023/06/26 03:41:25;;;;;;;;;;;;;;;24.18;67.15;100424.50;7399253;19;1806;-55
2023/06/26 03:43:56;;;;;;;;;;;;;;;24.16;67.18;100413.03;7399332;19;1022;-55
2023/06/26 03:46:25;;;;;;;;;;;;;;;24.22;67.13;100423.13;7399427;19;1495;-55
2023/06/26 03:48:53;;;;;;;;;;;;;;;24.19;67.33;100418.09;7395796;19;1816;-55
2023/06/26 03:51:21;;;;;;;;;;;;;;;24.19;67.05;100415.41;7398268;19;1866;-55
2023/06/26 03:53:50;;;;;;;;;;;;;;;24.17;67.38;100428.25;7397769;19;1474;-55
2023/06/26 03:56:18;;;;;;;;;;;;;;;24.17;67.42;100425.53;7397515;19;1402;-55
2023/06/26 03:58:46;;;;;;;;;;;;;;;24.14;67.41;100415.06;7395806;19;1420;-55
2023/06/26 04:01:17;;;;;;;;;;;;;;;24.15;67.29;100419.47;7398381;19;1723;-55
2023/06/26 04:03:45;;;;;;;;;;;;;;;24.14;67.41;100409.69;7398622;19;1036;-54
2023/06/26 04:06:14;;;;;;;;;;;;;;;24.20;67.22;100419.78;7397402;19;1965;-55
2023/06/26 04:08:42;;;;;;;;;;;;;;;24.22;67.25;100433.94;7398509;19;1963;-55
2023/06/26 04:11:10;;;;;;;;;;;;;;;24.18;67.39;100421.81;7397958;19;1841;-55
2023/06/26 04:13:39;;;;;;;;;;;;;;;24.19;67.33;100411.84;7398568;19;1035;-55
2023/06/26 04:16:07;;;;;;;;;;;;;;;24.21;67.13;100424.16;7397539;19;1597;-55
2023/06/26 04:18:38;;;;;;;;;;;;;;;24.15;67.34;100434.81;7394925;19;1577;-55
2023/06/26 04:21:07;;;;;;;;;;;;;;;24.11;67.64;100428.94;7398205;19;1775;-54
2023/06/26 04:23:36;;;;;;;;;;;;;;;24.13;67.55;100437.72;7397558;19;1803;-55
2023/06/26 04:26:05;;;;;;;;;;;;;;;24.13;67.49;100429.63;7397687;19;1197;-55
2023/06/26 04:28:33;;;;;;;;;;;;;;;24.10;67.64;100435.38;7395464;19;1840;-57
2023/06/26 04:31:02;;;;;;;;;;;;;;;24.11;67.65;100439.72;7397347;19;1859;-55
2023/06/26 04:33:31;;;;;;;;;;;;;;;24.08;67.58;100420.38;7397116;19;1685;-55
2023/06/26 04:36:03;;;;;;;;;;;;;;;24.19;67.57;100436.16;7396653;19;1802;-55
2023/06/26 04:38:31;;;;;;;;;;;;;;;24.14;67.41;100442.09;7396989;19;1372;-55
2023/06/26 04:40:59;;;;;;;;;;;;;;;24.10;67.54;100427.25;7397625;19;1700;-55
2023/06/26 04:43:27;;;;;;;;;;;;;;;24.14;67.31;100441.25;7397668;19;1127;-55
2023/06/26 04:45:56;;;;;;;;;;;;;;;24.17;67.47;100441.75;7396917;19;1660;-55
2023/06/26 04:48:24;;;;;;;;;;;;;;;24.09;67.43;100432.84;7393525;19;1514;-55
2023/06/26 04:50:55;;;;;;;;;;;;;;;24.11;67.70;100444.31;7396250;19;1704;-55
2023/06/26 04:53:27;;;;;;;;;;;;;;;24.12;67.58;100430.63;7395451;19;1841;-55
2023/06/26 04:55:55;;;;;;;;;;;;;;;24.08;67.56;100437.41;7397851;19;1190;-55
2023/06/26 04:58:24;;;;;;;;;;;;;;;24.02;67.79;100443.53;7398013;19;1036;-54
2023/06/26 05:00:52;;;;;;;;;;;;;;;24.11;67.72;100439.72;7396262;19;1620;-54
2023/06/26 05:03:21;;;;;;;;;;;;;;;24.06;67.96;100444.84;7396287;19;1922;-54
2023/06/26 05:05:50;;;;;;;;;;;;;;;24.10;67.78;100456.16;7395794;19;1486;-53
2023/06/26 05:08:19;;;;;;;;;;;;;;;24.09;67.78;100454.44;7394311;19;2237;-53
2023/06/26 05:10:49;;;;;;;;;;;;;;;24.07;67.60;100451.91;7396142;19;1815;-54
2023/06/26 05:13:19;;;;;;;;;;;;;;;24.01;67.80;100447.22;7396274;19;1892;-54
2023/06/26 05:15:48;;;;;;;;;;;;;;;24.05;67.74;100459.34;7402269;19;1414;-54
2023/06/26 05:18:16;;;;;;;;;;;;;;;24.09;67.70;100460.69;7402605;19;1819;-54
2023/06/26 05:20:45;;;;;;;;;;;;;;;24.01;67.99;100452.63;7403053;19;1394;-54
2023/06/26 05:23:13;;;;;;;;;;;;;;;24.07;67.94;100454.63;7403514;19;1686;-54
2023/06/26 05:25:42;;;;;;;;;;;;;;;24.00;67.84;100449.09;7404789;19;995;-53
2023/06/26 05:28:15;;;;;;;;;;;;;;;24.02;68.17;100459.72;7403118;19;1525;-54
2023/06/26 05:30:43;;;;;;;;;;;;;;;24.00;68.08;100461.75;7403051;19;1518;-54
2023/06/26 05:33:13;;;;;;;;;;;;;;;24.01;68.00;100453.50;7400831;19;2241;-54
2023/06/26 05:35:41;;;;;;;;;;;;;;;23.97;67.75;100452.16;7401969;19;1568;-54
2023/06/26 05:38:11;;;;;;;;;;;;;;;23.98;68.00;100459.22;7402852;19;1451;-54
2023/06/26 05:40:40;;;;;;;;;;;;;;;23.99;67.89;100468.16;7400178;19;1814;-54
2023/06/26 05:43:09;;;;;;;;;;;;;;;24.01;68.08;100471.53;7401853;19;1843;-54
2023/06/26 05:45:40;;;;;;;;;;;;;;;23.98;68.01;100455.69;7401931;19;1814;-54
2023/06/26 05:48:08;;;;;;;;;;;;;;;24.03;67.77;100480.28;7399181;19;1749;-54
2023/06/26 05:50:37;;;;;;;;;;;;;;;24.01;68.02;100460.72;7403824;19;1727;-54
2023/06/26 05:53:05;;;;;;;;;;;;;;;24.04;67.51;100454.97;7401387;19;1845;-54
2023/06/26 05:55:34;;;;;;;;;;;;;;;23.99;67.93;100452.81;7402803;19;1458;-54
2023/06/26 05:58:04;;;;;;;;;;;;;;;23.97;67.66;100451.28;7402375;19;1843;-54
2023/06/26 06:00:33;;;;;;;;;;;;;;;24.01;67.97;100463.44;7401968;19;1830;-54
2023/06/26 06:03:03;;;;;;;;;;;;;;;23.98;67.88;100459.22;7401752;19;1741;-54
2023/06/26 06:05:32;;;;;;;;;;;;;;;24.02;67.99;100465.13;7401939;19;1375;-54
2023/06/26 06:08:00;;;;;;;;;;;;;;;23.96;68.11;100466.66;7402199;19;1737;-54
2023/06/26 06:10:28;;;;;;;;;;;;;;;23.96;68.09;100480.16;7401674;19;1727;-54
2023/06/26 06:12:57;;;;;;;;;;;;;;;23.93;68.20;100472.41;7399434;19;1858;-54
2023/06/26 06:15:25;;;;;;;;;;;;;;;23.96;67.98;100473.94;7400093;19;1395;-54
2023/06/26 06:17:53;;;;;;;;;;;;;;;23.96;68.04;100469.38;7402552;19;1431;-54
2023/06/26 06:20:24;;;;;;;;;;;;;;;23.93;67.96;100468.88;7402827;19;1036;-54
2023/06/26 06:22:53;;;;;;;;;;;;;;;23.94;68.11;100467.88;7402850;19;1851;-54
2023/06/26 06:25:21;;;;;;;;;;;;;;;23.95;68.02;100469.53;7401361;19;1957;-54
2023/06/26 06:27:49;;;;;;;;;;;;;;;23.94;68.19;100466.00;7397467;19;1918;-54
2023/06/26 06:30:18;;;;;;;;;;;;;;;23.92;68.15;100475.31;7402719;19;1024;-54
2023/06/26 06:32:50;;;;;;;;;;;;;;;23.93;68.06;100464.31;7401238;19;1848;-54
2023/06/26 06:35:18;;;;;;;;;;;;;;;23.91;68.02;100462.81;7401660;19;1427;-54
2023/06/26 06:37:49;;;;;;;;;;;;;;;23.93;68.15;100456.19;7399225;19;2079;-54
2023/06/26 06:40:17;;;;;;;;;;;;;;;23.96;67.91;100457.72;7400689;19;1973;-54
2023/06/26 06:42:46;;;;;;;;;;;;;;;24.02;67.91;100465.97;7401121;19;1459;-54
2023/06/26 06:45:14;;;;;;;;;;;;;;;24.04;67.68;100457.69;7400795;19;1664;-54
2023/06/26 06:47:42;;;;;;;;;;;;;;;24.03;67.78;100461.38;7399587;19;1060;-54
2023/06/26 06:50:11;;;;;;;;;;;;;;;24.03;67.98;100456.00;7400751;19;1522;-54
2023/06/26 06:52:40;;;;;;;;;;;;;;;24.03;67.86;100469.50;7398993;19;1851;-54
2023/06/26 06:55:11;;;;;;;;;;;;;;;24.04;67.75;100462.25;7401386;19;1743;-54
2023/06/26 06:57:40;;;;;;;;;;;;;;;24.03;67.89;100461.38;7398756;19;1725;-54
2023/06/26 07:00:11;;;;;;;;;;;;;;;23.98;68.24;100474.59;7400251;19;1672;-54
2023/06/26 07:02:40;;;;;;;;;;;;;;;23.94;68.15;100481.38;7400170;19;1455;-54
2023/06/26 07:05:09;;;;;;;;;;;;;;;23.98;67.94;100478.13;7399236;19;1459;-54
2023/06/26 07:07:37;;;;;;;;;;;;;;;23.97;67.90;100467.50;7398837;19;1361;-54
2023/06/26 07:10:08;;;;;;;;;;;;;;;24.00;68.01;100478.78;7399027;19;1668;-54
2023/06/26 07:12:39;;;;;;;;;;;;;;;24.02;67.98;100481.34;7399317;19;1843;-54
2023/06/26 07:15:08;;;;;;;;;;;;;;;24.02;67.96;100465.97;7399925;19;1335;-54
2023/06/26 07:17:37;;;;;;;;;;;;;;;24.01;68.19;100472.41;7400435;19;1026;-54
2023/06/26 07:20:07;;;;;;;;;;;;;;;24.05;67.76;100467.47;7399983;19;1796;-54
2023/06/26 07:22:36;;;;;;;;;;;;;;;24.10;67.57;100469.66;7400196;19;1859;-54
2023/06/26 07:25:04;;;;;;;;;;;;;;;24.12;67.54;100475.72;7398778;19;1545;-54
2023/06/26 07:27:33;;;;;;;;;;;;;;;24.12;67.74;100465.75;7399612;19;2065;-54
2023/06/26 07:30:04;;;;;;;;;;;;;;;24.16;67.67;100469.78;7399377;19;1649;-54
2023/06/26 07:32:32;;;;;;;;;;;;;;;24.19;67.58;100477.53;7398326;19;1851;-54
2023/06/26 07:35:01;;;;;;;;;;;;;;;24.21;67.33;100474.63;7397513;19;1818;-54
2023/06/26 07:37:29;;;;;;;;;;;;;;;24.21;67.45;100480.91;7399062;19;1470;-54
2023/06/26 07:39:57;;;;;;;;;;;;;;;24.21;67.36;100475.50;7399455;19;1344;-54
2023/06/26 07:42:25;;;;;;;;;;;;;;;24.21;67.50;100480.91;7398151;19;1042;-54
2023/06/26 07:44:54;;;;;;;;;;;;;;;24.19;67.31;100472.13;7396102;19;1447;-54
2023/06/26 07:47:25;;;;;;;;;;;;;;;24.23;67.46;100483.41;7398248;19;1575;-54
2023/06/26 07:49:53;;;;;;;;;;;;;;;24.21;67.48;100486.31;7398903;19;1815;-54
2023/06/26 07:52:22;;;;;;;;;;;;;;;24.20;67.56;100472.97;7398404;19;1860;-54
2023/06/26 07:54:50;;;;;;;;;;;;;;;24.15;67.56;100470.81;7398496;19;1399;-54
2023/06/26 07:57:18;;;;;;;;;;;;;;;24.22;67.21;100485.28;7397959;19;1647;-54
2023/06/26 07:59:46;;;;;;;;;;;;;;;24.26;67.42;100483.06;7398406;19;1099;-54
2023/06/26 08:02:15;;;;;;;;;;;;;;;24.21;67.55;100478.22;7398444;19;1514;-54
2023/06/26 08:04:46;;;;;;;;;;;;;;;24.20;67.42;100479.22;7398165;19;1308;-54
2023/06/26 08:07:14;;;;;;;;;;;;;;;24.20;67.34;100473.81;7398771;19;1816;-54
2023/06/26 08:09:42;;;;;;;;;;;;;;;24.20;67.28;100476.50;7398155;19;1629;-54
2023/06/26 08:12:11;;;;;;;;;;;;;;;24.20;67.30;100463.00;7397893;19;1857;-54
2023/06/26 08:14:39;;;;;;;;;;;;;;;24.24;67.33;100474.28;7397525;19;1106;-54
2023/06/26 08:17:07;;;;;;;;;;;;;;;24.22;67.28;100479.88;7396396;19;2118;-54
2023/06/26 08:19:36;;;;;;;;;;;;;;;24.17;67.37;100476.88;7398448;19;1375;-54
2023/06/26 08:22:07;;;;;;;;;;;;;;;24.16;67.40;100477.88;7398243;19;1741;-54
2023/06/26 08:24:36;;;;;;;;;;;;;;;24.18;67.63;100470.44;7397869;19;1798;-54
2023/06/26 08:27:07;;;;;;;;;;;;;;;24.18;67.68;100475.84;7397844;19;1016;-54
2023/06/26 08:29:35;;;;;;;;;;;;;;;24.20;67.48;100472.97;7397136;19;1953;-54
2023/06/26 08:32:04;;;;;;;;;;;;;;;24.19;67.55;100474.84;7398246;19;1812;-54
2023/06/26 08:34:33;;;;;;;;;;;;;;;24.16;67.67;100477.88;7395851;19;2022;-54
2023/06/26 08:37:01;;;;;;;;;;;;;;;24.14;67.74;100479.91;7396557;19;1804;-54
2023/06/26 08:39:33;;;;;;;;;;;;;;;24.13;67.81;100463.88;7397595;19;1629;-54
2023/06/26 08:42:01;;;;;;;;;;;;;;;24.12;67.89;100479.25;7398457;19;927;-54
2023/06/26 08:44:30;;;;;;;;;;;;;;;24.14;67.96;100479.91;7393892;19;1534;-54
2023/06/26 08:46:58;;;;;;;;;;;;;;;24.18;67.63;100475.00;7400100;19;1873;-54
2023/06/26 08:49:29;;;;;;;;;;;;;;;24.21;67.38;100469.22;7397825;19;1818;-54
2023/06/26 08:52:00;;;;;;;;;;;;;;;24.18;67.71;100462.34;7403684;19;1967;-54
2023/06/26 08:54:30;;;;;;;;;;;;;;;24.17;67.64;100460.66;7399321;19;1834;-54
2023/06/26 08:57:01;;;;;;;;;;;;;;;24.19;67.64;100465.88;7404688;19;1425;-54
2023/06/26 08:59:30;;;;;;;;;;;;;;;24.14;67.62;100465.56;7404555;19;1688;-55
2023/06/26 09:01:58;;;;;;;;;;;;;;;24.20;67.58;100464.88;7404051;19;1795;-54
2023/06/26 09:04:27;;;;;;;;;;;;;;;24.19;67.47;100466.72;7405083;19;1809;-54
2023/06/26 09:06:56;;;;;;;;;;;;;;;24.22;67.34;100458.25;7404144;19;1348;-54
2023/06/26 09:09:24;;;;;;;;;;;;;;;24.21;67.29;100459.28;7404422;19;1715;-54
2023/06/26 09:11:52;;;;;;;;;;;;;;;24.25;67.36;100461.63;7404362;19;1899;-54
2023/06/26 09:14:23;;;;;;;;;;;;;;;24.20;67.42;100444.09;7398553;19;1866;-54
2023/06/26 09:16:52;;;;;;;;;;;;;;;24.24;67.29;100471.59;7401530;19;1740;-54
2023/06/26 09:19:21;;;;;;;;;;;;;;;24.24;67.37;100457.25;7405461;19;1016;-54
2023/06/26 09:21:51;;;;;;;;;;;;;;;24.21;67.68;100458.44;7402020;19;1903;-54
2023/06/26 09:24:20;;;;;;;;;;;;;;;24.17;67.32;100449.00;7404568;19;1727;-54
2023/06/26 09:26:49;;;;;;;;;;;;;;;24.16;67.74;100460.84;7403385;19;1826;-54
2023/06/26 09:29:18;;;;;;;;;;;;;;;24.14;67.60;100461.00;7404184;19;988;-54
2023/06/26 09:31:49;;;;;;;;;;;;;;;24.13;67.95;100475.53;7402948;19;1901;-54
2023/06/26 09:34:17;;;;;;;;;;;;;;;24.12;67.90;100471.16;7402312;19;1878;-54
2023/06/26 09:36:47;;;;;;;;;;;;;;;24.08;67.78;100467.13;7403612;19;1674;-54
2023/06/26 09:39:15;;;;;;;;;;;;;;;24.07;68.01;100468.13;7403015;19;1371;-54
2023/06/26 09:41:44;;;;;;;;;;;;;;;24.10;67.83;100464.25;7402878;19;1736;-54
2023/06/26 09:44:13;;;;;;;;;;;;;;;24.10;67.90;100462.38;7402622;19;1732;-54
2023/06/26 09:46:42;;;;;;;;;;;;;;;24.11;67.95;100466.75;7404374;19;946;-54
2023/06/26 09:49:13;;;;;;;;;;;;;;;24.09;68.06;100455.28;7400965;19;1106;-54
2023/06/26 09:51:42;;;;;;;;;;;;;;;24.11;67.71;100472.16;7400222;19;1950;-54
2023/06/26 10:05:10;;;;;;;;;;;;;;;24.07;67.93;100476.22;6345692;19;10001793;-54
2023/06/26 10:07:38;;;;;;;;;;;;;;;24.14;68.01;100471.81;7424806;19;1410;-54
2023/06/26 10:10:08;;;;;;;;;;;;;;;24.14;67.69;100479.91;7425422;19;1672;-54
2023/06/26 10:12:36;;;;;;;;;;;;;;;24.11;67.74;100460.50;7426753;19;1860;-54
2023/06/26 10:15:05;;;;;;;;;;;;;;;24.13;67.64;100470.16;7425002;19;1900;-54
2023/06/26 10:17:36;;;;;;;;;;;;;;;24.16;67.60;100461.66;7423947;19;1942;-54
2023/06/26 10:20:07;;;;;;;;;;;;;;;24.13;67.56;100453.06;7425434;19;1453;-54
2023/06/26 10:22:40;;;;;;;;;;;;;;;24.15;67.48;100453.72;7426923;19;1052;-54
2023/06/26 10:25:09;;;;;;;;;;;;;;;24.15;67.59;100457.31;7426983;19;1722;-54
2023/06/26 10:27:39;;;;;;;;;;;;;;;24.20;67.47;100460.28;7424540;19;1913;-54
2023/06/26 10:30:08;;;;;;;;;;;;;;;24.17;67.46;100467.91;7423495;19;1817;-54
2023/06/26 10:32:37;;;;;;;;;;;;;;;24.20;67.50;100463.00;7424428;19;1868;-54
2023/06/26 10:35:05;;;;;;;;;;;;;;;24.20;67.61;100467.56;7424907;19;1549;-54
2023/06/26 10:37:46;;;;;;;;;;;;;;;24.18;67.59;100459.63;7425077;19;1787;-54
2023/06/26 10:40:15;;;;;;;;;;;;;;;24.18;67.62;100453.41;7423974;19;1516;-54
2023/06/26 10:42:43;;;;;;;;;;;;;;;24.18;67.45;100458.78;7423478;19;1474;-54
2023/06/26 10:45:13;;;;;;;;;;;;;;;24.16;67.59;100453.56;7424647;19;1564;-54
2023/06/26 10:47:43;;;;;;;;;;;;;;;24.12;67.79;100443.31;7423094;19;1720;-54
2023/06/26 10:50:25;;;;;;;;;;;;;;;24.15;67.82;100453.72;7424246;19;1595;-54
2023/06/26 10:53:08;;;;;;;;;;;;;;;24.15;67.74;100460.00;7425667;19;1856;-54
2023/06/26 10:55:40;;;;;;;;;;;;;;;24.15;67.76;100451.03;7422557;19;2450;-54
2023/06/26 10:58:28;;;;;;;;;;;;;;;24.13;67.67;100456.63;7425098;19;1825;-54
2023/06/26 11:01:16;;;;;;;;;;;;;;;24.12;67.65;100454.94;7424577;19;1571;-54
2023/06/26 11:03:46;;;;;;;;;;;;;;;24.10;67.84;100458.84;7420804;19;1557;-54
2023/06/26 11:06:15;;;;;;;;;;;;;;;24.10;67.62;100459.69;7394951;19;1509;-54
2023/06/26 11:08:50;;;;;;;;;;;;;;;24.11;67.74;100450.53;7395864;19;1619;-54
2023/06/26 11:11:21;;;;;;;;;;;;;;;24.10;67.90;100456.16;7394815;19;2044;-54
2023/06/26 11:13:49;;;;;;;;;;;;;;;24.10;67.79;100456.16;7393289;19;1870;-54
2023/06/26 11:16:18;;;;;;;;;;;;;;;24.07;67.85;100457.31;7394888;19;1830;-54
2023/06/26 11:18:47;;;;;;;;;;;;;;;24.09;67.94;100460.69;7394223;19;1465;-54
2023/06/26 11:21:15;;;;;;;;;;;;;;;24.12;68.10;100473.84;7395476;19;1678;-54
2023/06/26 11:23:44;;;;;;;;;;;;;;;24.08;67.77;100453.63;7394256;19;1340;-54
2023/06/26 11:26:16;;;;;;;;;;;;;;;24.11;67.96;100458.66;7394780;19;1945;-55
2023/06/26 11:28:51;;;;;;;;;;;;;;;24.08;67.67;100450.06;7395189;19;1659;-54
2023/06/26 11:31:30;;;;;;;;;;;;;;;24.11;67.90;100458.66;7393336;19;1292;-54
2023/06/26 11:33:58;;;;;;;;;;;;;;;24.11;67.69;100457.81;7393782;19;1826;-54
2023/06/26 11:36:27;;;;;;;;;;;;;;;24.08;67.66;100448.22;7393754;19;1923;-54
2023/06/26 11:38:56;;;;;;;;;;;;;;;24.12;67.82;100446.84;7393550;19;1500;-54
2023/06/26 11:41:24;;;;;;;;;;;;;;;24.13;67.63;100472.84;7393967;19;1934;-54
2023/06/26 11:43:56;;;;;;;;;;;;;;;24.17;67.69;100455.25;7395060;19;1685;-54
2023/06/26 11:46:25;;;;;;;;;;;;;;;24.16;67.65;100455.44;7395446;19;982;-54
2023/06/26 11:48:53;;;;;;;;;;;;;;;24.11;67.88;100444.31;7393520;19;1814;-54
2023/06/26 11:51:21;;;;;;;;;;;;;;;24.12;67.70;100456.81;7393148;19;1850;-54
2023/06/26 11:53:50;;;;;;;;;;;;;;;24.14;67.87;100458.31;7389914;19;2332;-54
2023/06/26 11:56:22;;;;;;;;;;;;;;;24.11;67.97;100450.53;7394323;19;1156;-55
2023/06/26 11:59:03;;;;;;;;;;;;;;;24.12;67.69;100446.84;7393445;19;1763;-54
2023/06/26 12:01:34;;;;;;;;;;;;;;;24.11;67.78;100436.19;7394114;19;1643;-54
2023/06/26 12:04:03;;;;;;;;;;;;;;;24.09;67.72;100449.88;7392140;19;1790;-54
2023/06/26 12:06:32;;;;;;;;;;;;;;;24.07;67.74;100435.69;7393172;19;1899;-54
2023/06/26 12:09:03;;;;;;;;;;;;;;;24.05;67.70;100426.09;7392732;19;1516;-54
2023/06/26 12:11:32;;;;;;;;;;;;;;;24.08;68.09;100431.16;7392652;19;1937;-54
2023/06/26 12:14:03;;;;;;;;;;;;;;;24.07;67.88;100430.31;7392288;19;1845;-54
2023/06/26 12:16:32;;;;;;;;;;;;;;;24.11;67.98;100431.63;7391303;19;1749;-54
2023/06/26 12:19:01;;;;;;;;;;;;;;;24.10;67.98;100423.72;7391572;19;1582;-54
2023/06/26 12:21:47;;;;;;;;;;;;;;;24.08;67.99;100418.50;7393422;19;1731;-54
2023/06/26 12:24:16;;;;;;;;;;;;;;;24.07;67.95;100413.25;7392228;19;1455;-54
2023/06/26 12:26:46;;;;;;;;;;;;;;;24.06;67.84;100417.84;7392116;19;1664;-54
2023/06/26 12:29:17;;;;;;;;;;;;;;;24.07;67.84;100413.25;7391746;19;1567;-54
2023/06/26 12:31:47;;;;;;;;;;;;;;;24.11;67.79;100420.81;7391983;19;1782;-54
2023/06/26 12:34:17;;;;;;;;;;;;;;;24.08;67.91;100410.38;7390709;19;1849;-54
2023/06/26 12:36:47;;;;;;;;;;;;;;;24.11;67.75;100393.81;7391681;19;1620;-54
2023/06/26 12:39:15;;;;;;;;;;;;;;;24.12;67.67;100410.88;7392288;19;1572;-54
2023/06/26 12:41:47;;;;;;;;;;;;;;;24.18;67.60;100410.16;7391873;19;1463;-54
2023/06/26 12:44:28;;;;;;;;;;;;;;;24.19;67.50;100407.28;7393387;19;1622;-54
2023/06/26 12:46:57;;;;;;;;;;;;;;;24.22;67.31;100414.19;7393347;19;1536;-54
2023/06/26 12:49:35;;;;;;;;;;;;;;;24.20;67.63;100410.84;7392821;19;1572;-54
2023/06/26 12:52:03;;;;;;;;;;;;;;;24.21;67.45;100412.50;7393191;19;990;-54
2023/06/26 12:54:32;;;;;;;;;;;;;;;24.17;67.56;100395.81;7389207;19;2235;-54
2023/06/26 12:57:00;;;;;;;;;;;;;;;24.20;67.50;100411.66;7392734;19;1726;-54
2023/06/26 12:59:31;;;;;;;;;;;;;;;24.22;67.59;100417.72;7390884;19;1739;-54
2023/06/26 13:01:59;;;;;;;;;;;;;;;24.17;67.58;100403.06;7390590;19;1428;-54
2023/06/26 13:04:28;;;;;;;;;;;;;;;24.17;67.56;100414.75;7389783;19;1774;-54
2023/06/26 13:06:56;;;;;;;;;;;;;;;24.23;67.46;100423.97;7390129;19;1634;-54
2023/06/26 13:09:25;;;;;;;;;;;;;;;24.20;67.69;100427.03;7390762;19;1778;-55
2023/06/26 13:11:53;;;;;;;;;;;;;;;24.17;67.63;100427.38;7391269;19;1585;-54